Time,TemperatureF,DewpointF,PressureIn,WindDirection,WindDirectionDegrees,WindSpeedMPH,WindSpeedGustMPH,Humidity,HourlyPrecipIn,Conditions,Clouds,dailyrainin,SoftwareType,DateUTC
2013-03-01 00:00:00,-999.9,-99.9,30.35,North,32767,-999.0,0.0,255,-99.99,,,0.00,Wunderground v.1.15,2013-03-01 07:00:00,
2013-03-01 00:30:00,-999.9,-99.9,30.31,NE,40,6.0,6.0,255,0.00,,,0.00,Wunderground v.1.15,2013-03-01 07:30:00,
2013-03-01 01:00:00,29.5,7.0,30.42,NNE,13,6.0,6.0,38,0.00,,,0.00,Wunderground v.1.15,2013-03-01 08:00:00,
2013-03-01 01:30:00,30.3,9.4,30.42,North,0,4.0,4.0,41,0.00,,,0.00,Wunderground v.1.15,2013-03-01 08:30:00,
2013-03-01 02:00:00,31.0,9.5,30.39,North,354,3.0,5.0,40,0.00,,,0.00,Wunderground v.1.15,2013-03-01 09:00:00,
2013-03-01 02:30:00,30.4,9.5,30.37,NNE,24,3.0,3.0,41,0.00,,,0.00,Wunderground v.1.15,2013-03-01 09:30:00,
2013-03-01 03:30:00,29.7,10.4,30.28,NE,37,4.0,4.0,44,0.00,,,0.00,Wunderground v.1.15,2013-03-01 10:30:00,
2013-03-01 04:00:00,30.4,10.0,30.39,NNE,13,4.0,4.0,42,0.00,,,0.00,Wunderground v.1.15,2013-03-01 11:00:00,
2013-03-01 04:30:00,30.9,11.0,30.40,NNE,23,4.0,4.0,43,0.00,,,0.00,Wunderground v.1.15,2013-03-01 11:30:00,
2013-03-01 05:00:00,31.2,11.3,30.39,North,359,5.0,5.0,43,0.00,,,0.00,Wunderground v.1.15,2013-03-01 12:00:00,
2013-03-01 05:30:00,31.6,12.2,30.42,North,359,5.0,5.0,44,0.00,,,0.00,Wunderground v.1.15,2013-03-01 12:30:00,
2013-03-01 06:00:00,31.6,13.2,30.42,NNE,20,6.0,10.0,46,0.00,,,0.00,Wunderground v.1.15,2013-03-01 13:00:00,
2013-03-01 06:30:00,31.6,13.2,30.43,NE,34,3.0,3.0,46,0.00,,,0.00,Wunderground v.1.15,2013-03-01 13:30:00,
2013-03-01 07:00:00,31.0,12.1,30.43,South,179,3.0,3.0,45,0.00,,,0.00,Wunderground v.1.15,2013-03-01 14:00:00,
2013-03-01 07:30:00,28.8,12.0,30.48,WSW,246,5.0,5.0,49,0.00,,,0.00,Wunderground v.1.15,2013-03-01 14:30:00,
2013-03-01 08:00:00,28.8,12.0,30.51,WSW,240,4.0,4.0,49,0.00,,,0.00,Wunderground v.1.15,2013-03-01 15:00:00,
2013-03-01 08:30:00,30.1,12.7,30.53,NNE,14,4.0,4.0,48,0.00,,,0.00,Wunderground v.1.15,2013-03-01 15:30:00,
2013-03-01 09:00:00,31.5,13.6,30.49,SSW,192,3.0,6.0,47,0.00,,,0.00,Wunderground v.1.15,2013-03-01 16:00:00,
2013-03-01 09:30:00,33.8,15.2,30.44,West,272,4.0,8.0,46,0.00,,,0.00,Wunderground v.1.15,2013-03-01 16:30:00,
2013-03-01 10:00:00,39.1,16.8,30.37,SSE,162,1.0,1.0,40,0.00,,,0.00,Wunderground v.1.15,2013-03-01 17:00:00,
2013-03-01 10:30:00,41.5,16.5,30.30,SSW,210,5.0,10.0,36,0.00,,,0.00,Wunderground v.1.15,2013-03-01 17:30:00,
2013-03-01 11:00:00,43.6,17.0,30.28,SW,216,3.0,8.0,34,0.00,,,0.00,Wunderground v.1.15,2013-03-01 18:00:00,
2013-03-01 11:30:00,43.9,16.6,30.25,SW,227,7.0,8.0,33,0.00,,,0.00,Wunderground v.1.15,2013-03-01 18:30:00,
2013-03-01 12:00:00,43.5,18.3,30.26,South,178,10.0,10.0,36,0.00,,,0.00,Wunderground v.1.15,2013-03-01 19:00:00,
2013-03-01 12:30:00,42.9,17.7,30.37,South,179,9.0,12.0,36,0.00,,,0.00,Wunderground v.1.15,2013-03-01 19:30:00,
2013-03-01 13:00:00,43.9,17.3,30.38,NNW,336,9.0,9.0,34,0.00,,,0.00,Wunderground v.1.15,2013-03-01 20:00:00,
2013-03-01 13:30:00,44.3,17.7,30.34,WSW,253,5.0,5.0,34,0.00,,,0.00,Wunderground v.1.15,2013-03-01 20:30:00,
2013-03-01 14:00:00,43.8,18.5,30.34,SSE,161,7.0,16.0,36,0.00,,,0.00,Wunderground v.1.15,2013-03-01 21:00:00,
2013-03-01 14:30:00,43.3,17.4,30.33,South,169,11.0,11.0,35,0.00,,,0.00,Wunderground v.1.15,2013-03-01 21:30:00,
2013-03-01 15:00:00,45.5,16.6,30.34,SSW,213,4.0,5.0,31,0.00,,,0.00,Wunderground v.1.15,2013-03-01 22:00:00,
2013-03-01 15:30:00,44.9,17.5,30.33,North,0,5.0,5.0,33,0.00,,,0.00,Wunderground v.1.15,2013-03-01 22:30:00,
2013-03-01 16:00:00,45.7,18.9,30.33,NE,34,4.0,4.0,34,0.00,,,0.00,Wunderground v.1.15,2013-03-01 23:00:00,
2013-03-01 16:30:00,44.3,17.0,30.32,South,191,5.0,5.0,33,0.00,,,0.00,Wunderground v.1.15,2013-03-01 23:30:00,
2013-03-01 17:00:00,43.1,16.6,30.34,WSW,247,4.0,10.0,34,0.00,,,0.00,Wunderground v.1.15,2013-03-02 00:00:00,
2013-03-01 17:30:00,41.2,16.2,30.35,North,359,4.0,12.0,36,0.00,,,0.00,Wunderground v.1.15,2013-03-02 00:30:00,
2013-03-01 18:00:00,39.9,16.3,30.37,NW,323,5.0,5.0,38,0.00,,,0.00,Wunderground v.1.15,2013-03-02 01:00:00,
2013-03-01 18:30:00,38.6,15.7,30.40,NW,305,4.0,5.0,39,0.00,,,0.00,Wunderground v.1.15,2013-03-02 01:30:00,
2013-03-01 19:00:00,37.6,16.0,30.42,NW,311,4.0,4.0,41,0.00,,,0.00,Wunderground v.1.15,2013-03-02 02:00:00,
2013-03-01 19:30:00,37.2,15.6,30.45,North,354,3.0,5.0,41,0.00,,,0.00,Wunderground v.1.15,2013-03-02 02:30:00,
2013-03-01 20:00:00,36.6,15.6,30.45,NW,308,3.0,3.0,42,0.00,,,0.00,Wunderground v.1.15,2013-03-02 03:00:00,
2013-03-01 20:30:00,35.8,16.0,30.44,North,359,2.0,2.0,44,0.00,,,0.00,Wunderground v.1.15,2013-03-02 03:30:00,
2013-03-01 21:00:00,34.7,15.5,30.44,NNE,23,1.0,1.0,45,0.00,,,0.00,Wunderground v.1.15,2013-03-02 04:00:00,
2013-03-01 21:30:00,35.2,15.4,30.39,SW,232,2.0,2.0,44,0.00,,,0.00,Wunderground v.1.15,2013-03-02 04:30:00,
2013-03-01 22:00:00,35.5,14.6,30.41,ENE,66,3.0,3.0,42,0.00,,,0.00,Wunderground v.1.15,2013-03-02 05:00:00,
2013-03-01 22:30:00,34.7,15.0,30.38,NW,319,0.0,0.0,44,0.00,,,0.00,Wunderground v.1.15,2013-03-02 05:30:00,
2013-03-01 23:00:00,32.5,14.5,30.40,North,7,1.0,3.0,47,0.00,,,0.00,Wunderground v.1.15,2013-03-02 06:00:00,
2013-03-01 23:30:00,30.1,16.3,30.44,North,7,0.0,0.0,56,0.00,,,0.00,Wunderground v.1.15,2013-03-02 06:30:00,